sensor_id;sensor_type;location;lat;lon;timestamp;P1;durP1;ratioP1;P2;durP2;ratioP2
23228;SDS011;11783;50.350;6.576;2022-11-15T00:00:32;24.15;;;17.08;;
23228;SDS011;11783;50.350;6.576;2022-11-15T00:02:58;21.45;;;14.98;;
23228;SDS011;11783;50.350;6.576;2022-11-15T00:05:23;23.63;;;16.10;;
23228;SDS011;11783;50.350;6.576;2022-11-15T00:07:50;25.17;;;15.50;;
23228;SDS011;11783;50.350;6.576;2022-11-15T00:10:15;22.63;;;15.82;;
23228;SDS011;11783;50.350;6.576;2022-11-15T00:12:41;20.40;;;14.43;;
23228;SDS011;11783;50.350;6.576;2022-11-15T00:15:07;24.08;;;16.00;;
23228;SDS011;11783;50.350;6.576;2022-11-15T00:17:36;20.42;;;13.60;;
23228;SDS011;11783;50.350;6.576;2022-11-15T00:20:02;20.40;;;14.25;;
23228;SDS011;11783;50.350;6.576;2022-11-15T00:22:33;20.67;;;14.00;;
23228;SDS011;11783;50.350;6.576;2022-11-15T00:24:59;20.20;;;13.20;;
23228;SDS011;11783;50.350;6.576;2022-11-15T00:27:24;17.98;;;13.73;;
23228;SDS011;11783;50.350;6.576;2022-11-15T00:29:49;20.58;;;14.45;;
23228;SDS011;11783;50.350;6.576;2022-11-15T00:32:14;20.48;;;13.82;;
23228;SDS011;11783;50.350;6.576;2022-11-15T00:34:40;19.65;;;13.38;;
23228;SDS011;11783;50.350;6.576;2022-11-15T00:37:06;22.40;;;14.32;;
23228;SDS011;11783;50.350;6.576;2022-11-15T00:39:31;18.35;;;13.00;;
23228;SDS011;11783;50.350;6.576;2022-11-15T00:41:56;19.90;;;13.40;;
23228;SDS011;11783;50.350;6.576;2022-11-15T00:44:22;17.60;;;12.50;;
23228;SDS011;11783;50.350;6.576;2022-11-15T00:46:47;17.13;;;11.70;;
23228;SDS011;11783;50.350;6.576;2022-11-15T00:49:12;16.60;;;11.68;;
23228;SDS011;11783;50.350;6.576;2022-11-15T00:51:37;14.65;;;10.55;;
23228;SDS011;11783;50.350;6.576;2022-11-15T00:54:03;20.65;;;11.02;;
23228;SDS011;11783;50.350;6.576;2022-11-15T00:56:28;15.48;;;10.10;;
23228;SDS011;11783;50.350;6.576;2022-11-15T00:58:53;14.35;;;10.00;;
23228;SDS011;11783;50.350;6.576;2022-11-15T01:01:19;13.35;;;8.73;;
23228;SDS011;11783;50.350;6.576;2022-11-15T01:03:44;12.27;;;8.50;;
23228;SDS011;11783;50.350;6.576;2022-11-15T01:06:10;15.07;;;9.52;;
23228;SDS011;11783;50.350;6.576;2022-11-15T01:08:37;12.85;;;9.50;;
23228;SDS011;11783;50.350;6.576;2022-11-15T01:11:04;16.80;;;9.65;;
23228;SDS011;11783;50.350;6.576;2022-11-15T01:13:31;13.10;;;8.70;;
23228;SDS011;11783;50.350;6.576;2022-11-15T01:15:58;12.90;;;8.30;;
23228;SDS011;11783;50.350;6.576;2022-11-15T01:18:30;10.75;;;8.27;;
23228;SDS011;11783;50.350;6.576;2022-11-15T01:20:55;11.73;;;8.57;;
23228;SDS011;11783;50.350;6.576;2022-11-15T01:23:20;11.98;;;8.10;;
23228;SDS011;11783;50.350;6.576;2022-11-15T01:25:45;13.10;;;8.40;;
23228;SDS011;11783;50.350;6.576;2022-11-15T01:28:11;11.95;;;7.95;;
23228;SDS011;11783;50.350;6.576;2022-11-15T01:30:36;11.82;;;7.90;;
23228;SDS011;11783;50.350;6.576;2022-11-15T01:33:01;11.02;;;7.45;;
23228;SDS011;11783;50.350;6.576;2022-11-15T01:35:27;9.95;;;7.00;;
23228;SDS011;11783;50.350;6.576;2022-11-15T01:37:52;11.10;;;6.72;;
23228;SDS011;11783;50.350;6.576;2022-11-15T01:40:17;10.65;;;6.68;;
23228;SDS011;11783;50.350;6.576;2022-11-15T01:42:43;10.10;;;6.15;;
23228;SDS011;11783;50.350;6.576;2022-11-15T01:45:12;8.13;;;5.43;;
23228;SDS011;11783;50.350;6.576;2022-11-15T01:47:40;7.28;;;5.10;;
23228;SDS011;11783;50.350;6.576;2022-11-15T01:50:11;6.45;;;4.68;;
23228;SDS011;11783;50.350;6.576;2022-11-15T01:57:41;8.30;;;5.25;;
23228;SDS011;11783;50.350;6.576;2022-11-15T02:00:13;8.45;;;5.35;;
23228;SDS011;11783;50.350;6.576;2022-11-15T02:02:39;8.70;;;5.05;;
23228;SDS011;11783;50.350;6.576;2022-11-15T02:05:05;8.18;;;5.53;;
23228;SDS011;11783;50.350;6.576;2022-11-15T02:07:32;8.23;;;5.05;;
23228;SDS011;11783;50.350;6.576;2022-11-15T02:10:02;10.23;;;6.15;;
23228;SDS011;11783;50.350;6.576;2022-11-15T02:12:32;8.80;;;6.00;;
23228;SDS011;11783;50.350;6.576;2022-11-15T02:14:58;10.05;;;5.65;;
23228;SDS011;11783;50.350;6.576;2022-11-15T02:23:21;9.00;;;5.57;;
23228;SDS011;11783;50.350;6.576;2022-11-15T02:32:00;9.60;;;6.15;;
23228;SDS011;11783;50.350;6.576;2022-11-15T02:34:50;7.65;;;4.97;;
23228;SDS011;11783;50.350;6.576;2022-11-15T02:37:35;8.77;;;6.07;;
23228;SDS011;11783;50.350;6.576;2022-11-15T02:40:19;8.75;;;5.82;;
23228;SDS011;11783;50.350;6.576;2022-11-15T02:43:12;8.30;;;5.40;;
23228;SDS011;11783;50.350;6.576;2022-11-15T02:46:07;10.60;;;6.60;;
23228;SDS011;11783;50.350;6.576;2022-11-15T02:48:38;9.20;;;6.10;;
23228;SDS011;11783;50.350;6.576;2022-11-15T02:51:04;10.00;;;6.78;;
23228;SDS011;11783;50.350;6.576;2022-11-15T02:53:30;11.07;;;7.13;;
23228;SDS011;11783;50.350;6.576;2022-11-15T02:55:56;13.32;;;8.43;;
23228;SDS011;11783;50.350;6.576;2022-11-15T03:04:02;11.48;;;7.60;;
23228;SDS011;11783;50.350;6.576;2022-11-15T03:07:00;9.82;;;6.72;;
23228;SDS011;11783;50.350;6.576;2022-11-15T03:09:34;8.65;;;6.15;;
23228;SDS011;11783;50.350;6.576;2022-11-15T03:12:27;9.07;;;5.70;;
23228;SDS011;11783;50.350;6.576;2022-11-15T03:17:48;7.38;;;4.60;;
23228;SDS011;11783;50.350;6.576;2022-11-15T03:20:19;6.88;;;4.40;;
23228;SDS011;11783;50.350;6.576;2022-11-15T03:22:45;6.15;;;4.07;;
23228;SDS011;11783;50.350;6.576;2022-11-15T03:25:13;5.82;;;3.75;;
23228;SDS011;11783;50.350;6.576;2022-11-15T03:27:44;6.32;;;3.72;;
23228;SDS011;11783;50.350;6.576;2022-11-15T03:30:15;5.75;;;3.55;;
23228;SDS011;11783;50.350;6.576;2022-11-15T03:32:44;5.82;;;3.22;;
23228;SDS011;11783;50.350;6.576;2022-11-15T03:35:13;3.33;;;2.13;;
23228;SDS011;11783;50.350;6.576;2022-11-15T03:40:13;4.20;;;2.70;;
23228;SDS011;11783;50.350;6.576;2022-11-15T03:42:46;5.97;;;3.20;;
23228;SDS011;11783;50.350;6.576;2022-11-15T03:45:25;5.32;;;2.50;;
23228;SDS011;11783;50.350;6.576;2022-11-15T03:47:58;4.63;;;2.88;;
23228;SDS011;11783;50.350;6.576;2022-11-15T03:50:27;4.78;;;2.40;;
23228;SDS011;11783;50.350;6.576;2022-11-15T03:52:54;4.15;;;2.65;;
23228;SDS011;11783;50.350;6.576;2022-11-15T03:55:21;4.60;;;2.80;;
23228;SDS011;11783;50.350;6.576;2022-11-15T03:57:51;4.70;;;3.10;;
23228;SDS011;11783;50.350;6.576;2022-11-15T04:00:19;8.80;;;2.50;;
23228;SDS011;11783;50.350;6.576;2022-11-15T04:02:44;4.88;;;2.95;;
23228;SDS011;11783;50.350;6.576;2022-11-15T04:05:10;4.93;;;3.00;;
23228;SDS011;11783;50.350;6.576;2022-11-15T04:07:36;5.10;;;3.00;;
23228;SDS011;11783;50.350;6.576;2022-11-15T04:10:02;7.35;;;3.67;;
23228;SDS011;11783;50.350;6.576;2022-11-15T04:12:32;5.20;;;3.22;;
23228;SDS011;11783;50.350;6.576;2022-11-15T04:15:04;5.78;;;3.13;;
23228;SDS011;11783;50.350;6.576;2022-11-15T04:17:39;5.57;;;3.42;;
23228;SDS011;11783;50.350;6.576;2022-11-15T04:20:17;6.60;;;3.63;;
23228;SDS011;11783;50.350;6.576;2022-11-15T04:23:01;6.97;;;3.53;;
23228;SDS011;11783;50.350;6.576;2022-11-15T04:25:49;6.97;;;3.90;;
23228;SDS011;11783;50.350;6.576;2022-11-15T04:28:15;6.78;;;3.58;;
23228;SDS011;11783;50.350;6.576;2022-11-15T04:30:40;6.70;;;3.50;;
23228;SDS011;11783;50.350;6.576;2022-11-15T04:33:06;5.70;;;3.30;;
23228;SDS011;11783;50.350;6.576;2022-11-15T04:35:31;5.18;;;3.47;;
23228;SDS011;11783;50.350;6.576;2022-11-15T04:37:57;6.45;;;3.63;;
23228;SDS011;11783;50.350;6.576;2022-11-15T04:40:23;5.47;;;3.90;;
23228;SDS011;11783;50.350;6.576;2022-11-15T04:42:48;6.93;;;3.50;;
23228;SDS011;11783;50.350;6.576;2022-11-15T04:45:13;4.70;;;3.08;;
23228;SDS011;11783;50.350;6.576;2022-11-15T04:47:39;5.97;;;3.10;;
23228;SDS011;11783;50.350;6.576;2022-11-15T04:50:04;7.00;;;3.53;;
23228;SDS011;11783;50.350;6.576;2022-11-15T04:52:30;4.72;;;2.90;;
23228;SDS011;11783;50.350;6.576;2022-11-15T04:54:55;5.80;;;3.28;;
23228;SDS011;11783;50.350;6.576;2022-11-15T04:57:20;6.07;;;2.97;;
23228;SDS011;11783;50.350;6.576;2022-11-15T04:59:46;7.03;;;3.85;;
23228;SDS011;11783;50.350;6.576;2022-11-15T05:02:11;5.90;;;4.13;;
23228;SDS011;11783;50.350;6.576;2022-11-15T05:04:36;7.70;;;3.78;;
23228;SDS011;11783;50.350;6.576;2022-11-15T05:07:02;6.80;;;3.72;;
23228;SDS011;11783;50.350;6.576;2022-11-15T05:09:29;6.13;;;3.80;;
23228;SDS011;11783;50.350;6.576;2022-11-15T05:11:54;6.60;;;3.80;;
23228;SDS011;11783;50.350;6.576;2022-11-15T05:14:19;5.43;;;3.40;;
23228;SDS011;11783;50.350;6.576;2022-11-15T05:16:45;4.80;;;3.05;;
23228;SDS011;11783;50.350;6.576;2022-11-15T05:19:10;7.72;;;3.60;;
23228;SDS011;11783;50.350;6.576;2022-11-15T05:21:36;6.40;;;3.63;;
23228;SDS011;11783;50.350;6.576;2022-11-15T05:24:02;6.80;;;3.53;;
23228;SDS011;11783;50.350;6.576;2022-11-15T05:26:27;5.55;;;3.30;;
23228;SDS011;11783;50.350;6.576;2022-11-15T05:28:53;5.65;;;3.28;;
23228;SDS011;11783;50.350;6.576;2022-11-15T05:31:20;6.07;;;3.53;;
23228;SDS011;11783;50.350;6.576;2022-11-15T05:33:46;5.00;;;3.30;;
23228;SDS011;11783;50.350;6.576;2022-11-15T05:38:42;8.38;;;3.88;;
23228;SDS011;11783;50.350;6.576;2022-11-15T05:41:08;7.38;;;3.83;;
23228;SDS011;11783;50.350;6.576;2022-11-15T05:43:34;5.82;;;3.33;;
23228;SDS011;11783;50.350;6.576;2022-11-15T05:46:03;6.95;;;3.55;;
23228;SDS011;11783;50.350;6.576;2022-11-15T05:48:29;7.25;;;3.20;;
23228;SDS011;11783;50.350;6.576;2022-11-15T05:50:55;5.32;;;3.10;;
23228;SDS011;11783;50.350;6.576;2022-11-15T05:53:21;5.28;;;3.22;;
23228;SDS011;11783;50.350;6.576;2022-11-15T05:55:49;5.45;;;3.20;;
23228;SDS011;11783;50.350;6.576;2022-11-15T05:58:16;6.43;;;3.05;;
23228;SDS011;11783;50.350;6.576;2022-11-15T06:00:42;6.65;;;3.50;;
23228;SDS011;11783;50.350;6.576;2022-11-15T06:03:08;7.95;;;3.30;;
23228;SDS011;11783;50.350;6.576;2022-11-15T06:05:33;5.82;;;3.40;;
23228;SDS011;11783;50.350;6.576;2022-11-15T06:07:59;5.63;;;3.20;;
23228;SDS011;11783;50.350;6.576;2022-11-15T06:10:24;8.30;;;3.50;;
23228;SDS011;11783;50.350;6.576;2022-11-15T06:12:57;5.95;;;3.13;;
23228;SDS011;11783;50.350;6.576;2022-11-15T06:15:25;5.60;;;3.13;;
23228;SDS011;11783;50.350;6.576;2022-11-15T06:17:51;5.55;;;2.90;;
23228;SDS011;11783;50.350;6.576;2022-11-15T06:20:16;5.50;;;3.03;;
23228;SDS011;11783;50.350;6.576;2022-11-15T06:22:42;5.55;;;2.85;;
23228;SDS011;11783;50.350;6.576;2022-11-15T06:25:07;6.88;;;3.22;;
23228;SDS011;11783;50.350;6.576;2022-11-15T06:27:32;5.88;;;3.20;;
23228;SDS011;11783;50.350;6.576;2022-11-15T06:29:58;4.72;;;2.83;;
23228;SDS011;11783;50.350;6.576;2022-11-15T06:32:23;5.82;;;3.15;;
23228;SDS011;11783;50.350;6.576;2022-11-15T06:34:48;5.80;;;2.80;;
23228;SDS011;11783;50.350;6.576;2022-11-15T06:37:14;5.38;;;2.90;;
23228;SDS011;11783;50.350;6.576;2022-11-15T06:39:39;6.28;;;2.70;;
23228;SDS011;11783;50.350;6.576;2022-11-15T06:42:05;4.68;;;2.35;;
23228;SDS011;11783;50.350;6.576;2022-11-15T06:44:30;5.40;;;2.70;;
23228;SDS011;11783;50.350;6.576;2022-11-15T06:46:55;4.25;;;2.40;;
23228;SDS011;11783;50.350;6.576;2022-11-15T06:49:20;5.22;;;2.72;;
23228;SDS011;11783;50.350;6.576;2022-11-15T06:51:46;5.03;;;3.10;;
23228;SDS011;11783;50.350;6.576;2022-11-15T06:54:11;6.57;;;3.58;;
23228;SDS011;11783;50.350;6.576;2022-11-15T06:56:36;6.72;;;3.17;;
23228;SDS011;11783;50.350;6.576;2022-11-15T06:59:04;5.60;;;3.40;;
23228;SDS011;11783;50.350;6.576;2022-11-15T07:01:31;5.47;;;2.83;;
23228;SDS011;11783;50.350;6.576;2022-11-15T07:03:56;5.38;;;2.83;;
23228;SDS011;11783;50.350;6.576;2022-11-15T07:06:21;7.35;;;3.10;;
23228;SDS011;11783;50.350;6.576;2022-11-15T07:08:47;5.80;;;2.80;;
23228;SDS011;11783;50.350;6.576;2022-11-15T07:11:12;5.85;;;3.30;;
23228;SDS011;11783;50.350;6.576;2022-11-15T07:13:37;7.68;;;3.03;;
23228;SDS011;11783;50.350;6.576;2022-11-15T07:16:03;6.00;;;3.08;;
23228;SDS011;11783;50.350;6.576;2022-11-15T07:18:30;5.65;;;2.63;;
23228;SDS011;11783;50.350;6.576;2022-11-15T07:20:55;5.28;;;3.20;;
23228;SDS011;11783;50.350;6.576;2022-11-15T07:23:20;6.10;;;3.30;;
23228;SDS011;11783;50.350;6.576;2022-11-15T07:25:46;6.32;;;2.90;;
23228;SDS011;11783;50.350;6.576;2022-11-15T07:28:11;7.25;;;3.15;;
23228;SDS011;11783;50.350;6.576;2022-11-15T07:30:36;4.60;;;2.58;;
23228;SDS011;11783;50.350;6.576;2022-11-15T07:33:01;5.22;;;2.90;;
23228;SDS011;11783;50.350;6.576;2022-11-15T07:35:27;5.95;;;2.70;;
23228;SDS011;11783;50.350;6.576;2022-11-15T07:37:54;5.00;;;2.28;;
23228;SDS011;11783;50.350;6.576;2022-11-15T07:40:24;4.60;;;2.60;;
23228;SDS011;11783;50.350;6.576;2022-11-15T07:42:51;5.68;;;2.55;;
23228;SDS011;11783;50.350;6.576;2022-11-15T07:45:20;5.28;;;2.53;;
23228;SDS011;11783;50.350;6.576;2022-11-15T07:47:47;6.35;;;2.45;;
23228;SDS011;11783;50.350;6.576;2022-11-15T07:50:13;6.10;;;2.70;;
23228;SDS011;11783;50.350;6.576;2022-11-15T07:52:39;5.30;;;2.35;;
23228;SDS011;11783;50.350;6.576;2022-11-15T07:55:04;6.03;;;2.45;;
23228;SDS011;11783;50.350;6.576;2022-11-15T07:57:30;6.68;;;2.38;;
23228;SDS011;11783;50.350;6.576;2022-11-15T07:59:55;5.85;;;2.05;;
23228;SDS011;11783;50.350;6.576;2022-11-15T08:02:20;6.15;;;2.40;;
23228;SDS011;11783;50.350;6.576;2022-11-15T08:04:46;6.45;;;2.10;;
23228;SDS011;11783;50.350;6.576;2022-11-15T08:07:17;4.35;;;2.25;;
23228;SDS011;11783;50.350;6.576;2022-11-15T08:09:42;4.35;;;2.30;;
23228;SDS011;11783;50.350;6.576;2022-11-15T08:12:07;4.40;;;2.42;;
23228;SDS011;11783;50.350;6.576;2022-11-15T08:14:33;4.30;;;2.20;;
23228;SDS011;11783;50.350;6.576;2022-11-15T08:16:59;4.53;;;1.95;;
23228;SDS011;11783;50.350;6.576;2022-11-15T08:19:24;3.60;;;1.67;;
23228;SDS011;11783;50.350;6.576;2022-11-15T08:21:50;7.95;;;2.10;;
23228;SDS011;11783;50.350;6.576;2022-11-15T08:24:15;4.90;;;1.63;;
23228;SDS011;11783;50.350;6.576;2022-11-15T08:26:40;5.78;;;1.63;;
23228;SDS011;11783;50.350;6.576;2022-11-15T08:29:06;4.50;;;1.80;;
23228;SDS011;11783;50.350;6.576;2022-11-15T08:31:33;7.35;;;1.90;;
23228;SDS011;11783;50.350;6.576;2022-11-15T08:34:01;6.18;;;1.52;;
23228;SDS011;11783;50.350;6.576;2022-11-15T08:36:27;8.02;;;1.80;;
23228;SDS011;11783;50.350;6.576;2022-11-15T08:38:52;3.72;;;1.38;;
23228;SDS011;11783;50.350;6.576;2022-11-15T08:41:28;4.35;;;1.55;;
23228;SDS011;11783;50.350;6.576;2022-11-15T08:43:56;4.63;;;1.63;;
23228;SDS011;11783;50.350;6.576;2022-11-15T08:46:22;6.10;;;1.60;;
23228;SDS011;11783;50.350;6.576;2022-11-15T08:48:47;4.53;;;1.88;;
23228;SDS011;11783;50.350;6.576;2022-11-15T08:51:13;4.50;;;2.00;;
23228;SDS011;11783;50.350;6.576;2022-11-15T08:53:39;4.63;;;2.10;;
23228;SDS011;11783;50.350;6.576;2022-11-15T08:56:09;4.60;;;1.75;;
23228;SDS011;11783;50.350;6.576;2022-11-15T08:58:35;7.10;;;1.80;;
23228;SDS011;11783;50.350;6.576;2022-11-15T09:01:01;5.03;;;1.85;;
23228;SDS011;11783;50.350;6.576;2022-11-15T09:03:26;3.85;;;1.48;;
23228;SDS011;11783;50.350;6.576;2022-11-15T09:05:59;3.20;;;1.83;;
23228;SDS011;11783;50.350;6.576;2022-11-15T09:08:28;5.38;;;1.80;;
23228;SDS011;11783;50.350;6.576;2022-11-15T09:10:54;4.68;;;1.60;;
23228;SDS011;11783;50.350;6.576;2022-11-15T09:13:20;4.20;;;1.60;;
23228;SDS011;11783;50.350;6.576;2022-11-15T09:15:45;5.20;;;1.70;;
23228;SDS011;11783;50.350;6.576;2022-11-15T09:18:10;6.05;;;1.70;;
23228;SDS011;11783;50.350;6.576;2022-11-15T09:20:36;5.90;;;1.80;;
23228;SDS011;11783;50.350;6.576;2022-11-15T09:23:01;7.32;;;1.40;;
23228;SDS011;11783;50.350;6.576;2022-11-15T09:25:28;4.78;;;1.30;;
23228;SDS011;11783;50.350;6.576;2022-11-15T09:27:54;6.90;;;1.50;;
23228;SDS011;11783;50.350;6.576;2022-11-15T09:30:20;5.70;;;1.40;;
23228;SDS011;11783;50.350;6.576;2022-11-15T09:32:45;5.03;;;1.30;;
23228;SDS011;11783;50.350;6.576;2022-11-15T09:35:11;5.70;;;1.60;;
23228;SDS011;11783;50.350;6.576;2022-11-15T09:37:36;4.90;;;1.52;;
23228;SDS011;11783;50.350;6.576;2022-11-15T09:40:02;7.47;;;1.50;;
23228;SDS011;11783;50.350;6.576;2022-11-15T09:45:23;5.68;;;1.40;;
23228;SDS011;11783;50.350;6.576;2022-11-15T09:48:08;4.43;;;1.60;;
23228;SDS011;11783;50.350;6.576;2022-11-15T09:50:51;4.75;;;1.25;;
23228;SDS011;11783;50.350;6.576;2022-11-15T09:54:01;4.82;;;1.33;;
23228;SDS011;11783;50.350;6.576;2022-11-15T09:56:23;9.15;;;1.25;;
23228;SDS011;11783;50.350;6.576;2022-11-15T09:59:05;4.82;;;1.13;;
23228;SDS011;11783;50.350;6.576;2022-11-15T10:01:59;4.50;;;1.40;;
23228;SDS011;11783;50.350;6.576;2022-11-15T10:04:48;4.10;;;1.40;;
23228;SDS011;11783;50.350;6.576;2022-11-15T10:07:19;4.85;;;1.30;;
23228;SDS011;11783;50.350;6.576;2022-11-15T10:09:51;6.05;;;1.35;;
23228;SDS011;11783;50.350;6.576;2022-11-15T10:12:17;6.43;;;1.30;;
23228;SDS011;11783;50.350;6.576;2022-11-15T10:14:43;8.85;;;2.28;;
23228;SDS011;11783;50.350;6.576;2022-11-15T10:22:50;5.05;;;1.70;;
23228;SDS011;11783;50.350;6.576;2022-11-15T10:25:19;2.85;;;1.42;;
23228;SDS011;11783;50.350;6.576;2022-11-15T10:27:53;6.68;;;1.40;;
23228;SDS011;11783;50.350;6.576;2022-11-15T10:30:20;6.22;;;1.52;;
23228;SDS011;11783;50.350;6.576;2022-11-15T10:32:47;4.00;;;1.88;;
23228;SDS011;11783;50.350;6.576;2022-11-15T10:35:18;3.90;;;1.50;;
23228;SDS011;11783;50.350;6.576;2022-11-15T10:38:04;5.63;;;1.60;;
23228;SDS011;11783;50.350;6.576;2022-11-15T10:40:34;6.85;;;1.83;;
23228;SDS011;11783;50.350;6.576;2022-11-15T10:43:19;6.32;;;1.83;;
23228;SDS011;11783;50.350;6.576;2022-11-15T10:45:45;6.63;;;1.75;;
23228;SDS011;11783;50.350;6.576;2022-11-15T10:50:36;4.65;;;1.73;;
23228;SDS011;11783;50.350;6.576;2022-11-15T10:53:02;3.17;;;1.48;;
23228;SDS011;11783;50.350;6.576;2022-11-15T10:55:29;5.70;;;2.03;;
23228;SDS011;11783;50.350;6.576;2022-11-15T10:58:06;5.53;;;2.00;;
23228;SDS011;11783;50.350;6.576;2022-11-15T11:01:12;7.10;;;1.92;;
23228;SDS011;11783;50.350;6.576;2022-11-15T11:03:45;4.65;;;2.03;;
23228;SDS011;11783;50.350;6.576;2022-11-15T11:06:24;4.80;;;2.00;;
23228;SDS011;11783;50.350;6.576;2022-11-15T11:08:54;6.93;;;1.88;;
23228;SDS011;11783;50.350;6.576;2022-11-15T11:13:47;6.65;;;1.80;;
23228;SDS011;11783;50.350;6.576;2022-11-15T11:18:48;5.45;;;1.80;;
23228;SDS011;11783;50.350;6.576;2022-11-15T11:21:33;4.03;;;1.63;;
23228;SDS011;11783;50.350;6.576;2022-11-15T11:24:51;5.75;;;1.63;;
23228;SDS011;11783;50.350;6.576;2022-11-15T11:30:06;6.22;;;2.20;;
23228;SDS011;11783;50.350;6.576;2022-11-15T11:35:30;6.32;;;2.25;;
23228;SDS011;11783;50.350;6.576;2022-11-15T11:44:24;7.03;;;2.60;;
23228;SDS011;11783;50.350;6.576;2022-11-15T11:47:16;5.80;;;2.15;;
23228;SDS011;11783;50.350;6.576;2022-11-15T11:49:52;5.43;;;2.50;;
23228;SDS011;11783;50.350;6.576;2022-11-15T11:52:23;7.20;;;2.58;;
23228;SDS011;11783;50.350;6.576;2022-11-15T11:55:12;5.78;;;2.70;;
23228;SDS011;11783;50.350;6.576;2022-11-15T11:58:03;6.03;;;2.90;;
23228;SDS011;11783;50.350;6.576;2022-11-15T12:00:38;5.95;;;2.78;;
23228;SDS011;11783;50.350;6.576;2022-11-15T12:03:13;6.25;;;2.60;;
23228;SDS011;11783;50.350;6.576;2022-11-15T12:06:06;5.85;;;2.95;;
23228;SDS011;11783;50.350;6.576;2022-11-15T12:08:54;7.13;;;2.85;;
23228;SDS011;11783;50.350;6.576;2022-11-15T12:17:21;6.78;;;3.58;;
23228;SDS011;11783;50.350;6.576;2022-11-15T12:19:49;6.90;;;3.38;;
23228;SDS011;11783;50.350;6.576;2022-11-15T12:22:28;7.90;;;3.70;;
23228;SDS011;11783;50.350;6.576;2022-11-15T12:25:18;6.15;;;3.42;;
23228;SDS011;11783;50.350;6.576;2022-11-15T12:27:53;8.55;;;3.80;;
23228;SDS011;11783;50.350;6.576;2022-11-15T12:30:22;7.07;;;3.45;;
23228;SDS011;11783;50.350;6.576;2022-11-15T12:37:52;6.30;;;3.38;;
23228;SDS011;11783;50.350;6.576;2022-11-15T12:40:21;7.43;;;3.28;;
23228;SDS011;11783;50.350;6.576;2022-11-15T12:42:57;8.27;;;3.50;;
23228;SDS011;11783;50.350;6.576;2022-11-15T12:45:38;5.00;;;3.00;;
23228;SDS011;11783;50.350;6.576;2022-11-15T12:58:27;7.30;;;3.78;;
23228;SDS011;11783;50.350;6.576;2022-11-15T13:01:52;7.35;;;3.30;;
23228;SDS011;11783;50.350;6.576;2022-11-15T13:07:02;6.28;;;2.40;;
23228;SDS011;11783;50.350;6.576;2022-11-15T13:11:58;5.47;;;2.70;;
23228;SDS011;11783;50.350;6.576;2022-11-15T13:19:43;4.85;;;2.20;;
23228;SDS011;11783;50.350;6.576;2022-11-15T13:22:17;6.65;;;2.17;;
23228;SDS011;11783;50.350;6.576;2022-11-15T13:25:01;5.28;;;2.50;;
23228;SDS011;11783;50.350;6.576;2022-11-15T13:27:27;4.13;;;2.10;;
23228;SDS011;11783;50.350;6.576;2022-11-15T13:29:53;5.97;;;2.10;;
23228;SDS011;11783;50.350;6.576;2022-11-15T13:32:19;4.15;;;2.17;;
23228;SDS011;11783;50.350;6.576;2022-11-15T13:34:45;5.18;;;1.92;;
23228;SDS011;11783;50.350;6.576;2022-11-15T13:42:14;4.33;;;1.90;;
23228;SDS011;11783;50.350;6.576;2022-11-15T13:44:40;3.50;;;1.90;;
23228;SDS011;11783;50.350;6.576;2022-11-15T13:47:25;3.65;;;1.80;;
23228;SDS011;11783;50.350;6.576;2022-11-15T13:49:52;4.20;;;2.00;;
23228;SDS011;11783;50.350;6.576;2022-11-15T13:52:17;3.75;;;1.80;;
23228;SDS011;11783;50.350;6.576;2022-11-15T13:54:57;4.30;;;1.83;;
23228;SDS011;11783;50.350;6.576;2022-11-15T14:03:21;5.07;;;1.92;;
23228;SDS011;11783;50.350;6.576;2022-11-15T14:11:36;4.32;;;1.80;;
23228;SDS011;11783;50.350;6.576;2022-11-15T14:14:11;5.10;;;1.80;;
23228;SDS011;11783;50.350;6.576;2022-11-15T14:16:42;3.47;;;1.80;;
23228;SDS011;11783;50.350;6.576;2022-11-15T14:24:47;4.25;;;1.92;;
23228;SDS011;11783;50.350;6.576;2022-11-15T14:27:30;4.15;;;2.10;;
23228;SDS011;11783;50.350;6.576;2022-11-15T14:29:56;4.22;;;2.15;;
23228;SDS011;11783;50.350;6.576;2022-11-15T14:32:23;4.72;;;2.08;;
23228;SDS011;11783;50.350;6.576;2022-11-15T14:34:54;5.00;;;2.15;;
23228;SDS011;11783;50.350;6.576;2022-11-15T14:37:21;4.82;;;2.20;;
23228;SDS011;11783;50.350;6.576;2022-11-15T14:39:49;3.58;;;1.90;;
23228;SDS011;11783;50.350;6.576;2022-11-15T14:42:15;4.45;;;1.80;;
23228;SDS011;11783;50.350;6.576;2022-11-15T14:44:41;4.60;;;1.90;;
23228;SDS011;11783;50.350;6.576;2022-11-15T14:47:06;4.55;;;2.03;;
23228;SDS011;11783;50.350;6.576;2022-11-15T14:49:31;5.32;;;2.22;;
23228;SDS011;11783;50.350;6.576;2022-11-15T14:51:57;3.55;;;2.05;;
23228;SDS011;11783;50.350;6.576;2022-11-15T14:54:22;5.47;;;2.35;;
23228;SDS011;11783;50.350;6.576;2022-11-15T14:56:47;5.53;;;2.72;;
23228;SDS011;11783;50.350;6.576;2022-11-15T14:59:12;6.13;;;2.42;;
23228;SDS011;11783;50.350;6.576;2022-11-15T15:01:38;4.55;;;2.45;;
23228;SDS011;11783;50.350;6.576;2022-11-15T15:04:03;5.45;;;2.20;;
23228;SDS011;11783;50.350;6.576;2022-11-15T15:06:28;6.22;;;2.50;;
23228;SDS011;11783;50.350;6.576;2022-11-15T15:08:55;4.07;;;2.47;;
23228;SDS011;11783;50.350;6.576;2022-11-15T15:11:25;4.97;;;2.33;;
23228;SDS011;11783;50.350;6.576;2022-11-15T15:13:53;4.53;;;2.03;;
23228;SDS011;11783;50.350;6.576;2022-11-15T15:16:21;5.20;;;2.20;;
23228;SDS011;11783;50.350;6.576;2022-11-15T15:18:47;4.25;;;2.03;;
23228;SDS011;11783;50.350;6.576;2022-11-15T15:21:22;5.63;;;2.20;;
23228;SDS011;11783;50.350;6.576;2022-11-15T15:23:50;8.05;;;2.47;;
23228;SDS011;11783;50.350;6.576;2022-11-15T15:26:16;6.68;;;2.50;;
23228;SDS011;11783;50.350;6.576;2022-11-15T15:28:42;4.88;;;2.70;;
23228;SDS011;11783;50.350;6.576;2022-11-15T15:31:08;5.03;;;2.88;;
23228;SDS011;11783;50.350;6.576;2022-11-15T15:33:34;5.68;;;2.45;;
23228;SDS011;11783;50.350;6.576;2022-11-15T15:36:00;6.82;;;3.20;;
23228;SDS011;11783;50.350;6.576;2022-11-15T15:38:25;4.65;;;2.58;;
23228;SDS011;11783;50.350;6.576;2022-11-15T15:40:51;6.93;;;3.10;;
23228;SDS011;11783;50.350;6.576;2022-11-15T15:43:16;5.50;;;2.55;;
23228;SDS011;11783;50.350;6.576;2022-11-15T15:45:41;6.18;;;2.63;;
23228;SDS011;11783;50.350;6.576;2022-11-15T15:48:11;5.18;;;2.65;;
23228;SDS011;11783;50.350;6.576;2022-11-15T15:50:37;4.38;;;2.63;;
23228;SDS011;11783;50.350;6.576;2022-11-15T15:53:03;6.57;;;2.60;;
23228;SDS011;11783;50.350;6.576;2022-11-15T15:55:29;6.72;;;2.80;;
23228;SDS011;11783;50.350;6.576;2022-11-15T15:57:55;6.30;;;2.83;;
23228;SDS011;11783;50.350;6.576;2022-11-15T16:00:20;5.35;;;2.30;;
23228;SDS011;11783;50.350;6.576;2022-11-15T16:02:48;4.30;;;2.53;;
23228;SDS011;11783;50.350;6.576;2022-11-15T16:05:14;4.70;;;2.45;;
23228;SDS011;11783;50.350;6.576;2022-11-15T16:07:39;4.63;;;2.50;;
23228;SDS011;11783;50.350;6.576;2022-11-15T16:12:53;3.70;;;2.30;;
23228;SDS011;11783;50.350;6.576;2022-11-15T16:15:20;4.68;;;2.50;;
23228;SDS011;11783;50.350;6.576;2022-11-15T16:17:51;5.00;;;2.78;;
23228;SDS011;11783;50.350;6.576;2022-11-15T16:23:05;4.25;;;2.30;;
23228;SDS011;11783;50.350;6.576;2022-11-15T16:25:34;4.22;;;2.35;;
23228;SDS011;11783;50.350;6.576;2022-11-15T16:28:04;4.95;;;2.63;;
23228;SDS011;11783;50.350;6.576;2022-11-15T16:30:29;6.68;;;2.63;;
23228;SDS011;11783;50.350;6.576;2022-11-15T16:32:54;6.20;;;2.75;;
23228;SDS011;11783;50.350;6.576;2022-11-15T16:35:20;5.07;;;2.38;;
23228;SDS011;11783;50.350;6.576;2022-11-15T16:37:45;4.50;;;2.40;;
23228;SDS011;11783;50.350;6.576;2022-11-15T16:40:16;3.95;;;2.33;;
23228;SDS011;11783;50.350;6.576;2022-11-15T16:42:47;4.13;;;2.10;;
23228;SDS011;11783;50.350;6.576;2022-11-15T16:45:12;3.42;;;1.98;;
23228;SDS011;11783;50.350;6.576;2022-11-15T16:47:38;4.85;;;2.08;;
23228;SDS011;11783;50.350;6.576;2022-11-15T16:50:04;5.30;;;2.10;;
23228;SDS011;11783;50.350;6.576;2022-11-15T16:52:29;4.50;;;2.33;;
23228;SDS011;11783;50.350;6.576;2022-11-15T16:54:55;4.68;;;2.40;;